Madray Springs, Georgia
Current Conditions -  °F | °C
As of 11:55 AM on Thursday 30 Oct 2014 (Local Time) from KJES Reporting Station
Clear Clear  
Wind Chill: 72°   Ceiling: Unl
Heat Index: 72°   Visibility: 10mi
Dew Point: 59°   Wind: 3mph
Humidity: 64%   Direction: 360°N
Pressure: 30"   Gusts: NA
Location:  31.5041°N, 81.8277°W
Report Text: KJES 301555Z AUTO 36003KT 10SM CLR 22/15 A3000 RMK AO2
Loading
Personal Weather Stations






























Interactive Weather Map
Tropical Storm Tracking
New forecast layout! Learn more

10-Day Weather Forecast

Advertisements
Track Severe Weather on mobile